sensor_id;sensor_type;location;lat;lon;timestamp;P1;durP1;ratioP1;P2;durP2;ratioP2
7675;SDS011;3880;51.464;-2.566;2022-11-20T00:01:25;16.50;;;6.40;;
7675;SDS011;3880;51.464;-2.566;2022-11-20T00:03:53;12.57;;;6.13;;
7675;SDS011;3880;51.464;-2.566;2022-11-20T00:06:24;12.17;;;6.70;;
7675;SDS011;3880;51.464;-2.566;2022-11-20T00:08:53;11.60;;;5.27;;
7675;SDS011;3880;51.464;-2.566;2022-11-20T00:11:21;11.93;;;7.13;;
7675;SDS011;3880;51.464;-2.566;2022-11-20T00:13:51;13.97;;;7.00;;
7675;SDS011;3880;51.464;-2.566;2022-11-20T00:16:20;11.70;;;6.93;;
7675;SDS011;3880;51.464;-2.566;2022-11-20T00:18:48;13.37;;;7.70;;
7675;SDS011;3880;51.464;-2.566;2022-11-20T00:21:16;11.77;;;6.57;;
7675;SDS011;3880;51.464;-2.566;2022-11-20T00:23:45;10.03;;;6.17;;
7675;SDS011;3880;51.464;-2.566;2022-11-20T00:26:13;12.77;;;6.57;;
7675;SDS011;3880;51.464;-2.566;2022-11-20T00:28:41;16.13;;;6.50;;
7675;SDS011;3880;51.464;-2.566;2022-11-20T00:31:10;13.37;;;6.23;;
7675;SDS011;3880;51.464;-2.566;2022-11-20T00:33:38;10.40;;;6.30;;
7675;SDS011;3880;51.464;-2.566;2022-11-20T00:36:07;9.20;;;5.87;;
7675;SDS011;3880;51.464;-2.566;2022-11-20T00:38:35;9.17;;;5.97;;
7675;SDS011;3880;51.464;-2.566;2022-11-20T00:41:04;11.97;;;6.17;;
7675;SDS011;3880;51.464;-2.566;2022-11-20T00:43:33;12.90;;;6.13;;
7675;SDS011;3880;51.464;-2.566;2022-11-20T00:46:02;10.07;;;6.03;;
7675;SDS011;3880;51.464;-2.566;2022-11-20T00:48:31;10.07;;;6.47;;
7675;SDS011;3880;51.464;-2.566;2022-11-20T00:50:58;12.37;;;7.83;;
7675;SDS011;3880;51.464;-2.566;2022-11-20T00:53:25;13.23;;;6.50;;
7675;SDS011;3880;51.464;-2.566;2022-11-20T00:55:52;14.07;;;7.80;;
7675;SDS011;3880;51.464;-2.566;2022-11-20T00:58:22;11.30;;;7.20;;
7675;SDS011;3880;51.464;-2.566;2022-11-20T01:00:50;12.53;;;6.33;;
7675;SDS011;3880;51.464;-2.566;2022-11-20T01:03:17;17.90;;;6.20;;
7675;SDS011;3880;51.464;-2.566;2022-11-20T01:05:44;11.97;;;7.83;;
7675;SDS011;3880;51.464;-2.566;2022-11-20T01:08:11;10.87;;;6.30;;
7675;SDS011;3880;51.464;-2.566;2022-11-20T01:10:38;13.70;;;7.33;;
7675;SDS011;3880;51.464;-2.566;2022-11-20T01:13:05;14.73;;;6.73;;
7675;SDS011;3880;51.464;-2.566;2022-11-20T01:15:51;10.40;;;7.17;;
7675;SDS011;3880;51.464;-2.566;2022-11-20T01:18:18;13.70;;;7.80;;
7675;SDS011;3880;51.464;-2.566;2022-11-20T01:20:45;11.33;;;8.07;;
7675;SDS011;3880;51.464;-2.566;2022-11-20T01:23:12;19.07;;;8.00;;
7675;SDS011;3880;51.464;-2.566;2022-11-20T01:25:39;14.00;;;7.37;;
7675;SDS011;3880;51.464;-2.566;2022-11-20T01:28:06;12.80;;;8.30;;
7675;SDS011;3880;51.464;-2.566;2022-11-20T01:30:33;10.70;;;7.00;;
7675;SDS011;3880;51.464;-2.566;2022-11-20T01:33:02;9.93;;;6.87;;
7675;SDS011;3880;51.464;-2.566;2022-11-20T01:35:29;12.90;;;8.33;;
7675;SDS011;3880;51.464;-2.566;2022-11-20T01:37:56;13.43;;;8.47;;
7675;SDS011;3880;51.464;-2.566;2022-11-20T01:40:23;15.43;;;8.90;;
7675;SDS011;3880;51.464;-2.566;2022-11-20T01:42:52;12.27;;;8.23;;
7675;SDS011;3880;51.464;-2.566;2022-11-20T01:48:35;19.97;;;8.60;;
7675;SDS011;3880;51.464;-2.566;2022-11-20T01:51:05;12.17;;;7.97;;
7675;SDS011;3880;51.464;-2.566;2022-11-20T01:53:39;10.17;;;7.77;;
7675;SDS011;3880;51.464;-2.566;2022-11-20T01:56:07;9.30;;;6.67;;
7675;SDS011;3880;51.464;-2.566;2022-11-20T01:58:38;9.67;;;7.47;;
7675;SDS011;3880;51.464;-2.566;2022-11-20T02:01:10;13.37;;;8.40;;
7675;SDS011;3880;51.464;-2.566;2022-11-20T02:03:40;10.97;;;6.80;;
7675;SDS011;3880;51.464;-2.566;2022-11-20T02:06:10;11.07;;;7.33;;
7675;SDS011;3880;51.464;-2.566;2022-11-20T02:08:41;10.63;;;7.43;;
7675;SDS011;3880;51.464;-2.566;2022-11-20T02:11:08;10.50;;;8.47;;
7675;SDS011;3880;51.464;-2.566;2022-11-20T02:13:35;14.97;;;7.97;;
7675;SDS011;3880;51.464;-2.566;2022-11-20T02:16:12;10.80;;;7.33;;
7675;SDS011;3880;51.464;-2.566;2022-11-20T02:18:43;12.90;;;8.17;;
7675;SDS011;3880;51.464;-2.566;2022-11-20T02:21:22;11.13;;;8.33;;
7675;SDS011;3880;51.464;-2.566;2022-11-20T02:24:03;14.10;;;7.87;;
7675;SDS011;3880;51.464;-2.566;2022-11-20T02:26:33;9.37;;;6.17;;
7675;SDS011;3880;51.464;-2.566;2022-11-20T02:29:04;10.30;;;7.00;;
7675;SDS011;3880;51.464;-2.566;2022-11-20T02:31:37;8.13;;;6.33;;
7675;SDS011;3880;51.464;-2.566;2022-11-20T02:34:07;9.47;;;6.90;;
7675;SDS011;3880;51.464;-2.566;2022-11-20T02:36:34;7.57;;;6.10;;
7675;SDS011;3880;51.464;-2.566;2022-11-20T02:39:04;9.00;;;6.60;;
7675;SDS011;3880;51.464;-2.566;2022-11-20T02:41:32;7.40;;;6.33;;
7675;SDS011;3880;51.464;-2.566;2022-11-20T02:44:00;9.97;;;7.00;;
7675;SDS011;3880;51.464;-2.566;2022-11-20T02:46:28;11.57;;;7.27;;
7675;SDS011;3880;51.464;-2.566;2022-11-20T02:48:55;9.30;;;7.67;;
7675;SDS011;3880;51.464;-2.566;2022-11-20T02:51:23;9.40;;;7.73;;
7675;SDS011;3880;51.464;-2.566;2022-11-20T02:53:50;8.70;;;7.03;;
7675;SDS011;3880;51.464;-2.566;2022-11-20T02:56:28;7.87;;;6.67;;
7675;SDS011;3880;51.464;-2.566;2022-11-20T02:58:55;8.70;;;6.63;;
7675;SDS011;3880;51.464;-2.566;2022-11-20T03:01:23;7.00;;;6.30;;
7675;SDS011;3880;51.464;-2.566;2022-11-20T03:03:50;8.43;;;7.13;;
7675;SDS011;3880;51.464;-2.566;2022-11-20T03:06:19;10.80;;;7.43;;
7675;SDS011;3880;51.464;-2.566;2022-11-20T03:08:46;7.13;;;6.40;;
7675;SDS011;3880;51.464;-2.566;2022-11-20T03:11:13;7.47;;;6.67;;
7675;SDS011;3880;51.464;-2.566;2022-11-20T03:13:42;11.17;;;9.00;;
7675;SDS011;3880;51.464;-2.566;2022-11-20T03:16:10;30.10;;;18.93;;
7675;SDS011;3880;51.464;-2.566;2022-11-20T03:18:39;5.43;;;4.47;;
7675;SDS011;3880;51.464;-2.566;2022-11-20T03:21:07;7.47;;;5.07;;
7675;SDS011;3880;51.464;-2.566;2022-11-20T03:23:35;5.03;;;3.63;;
7675;SDS011;3880;51.464;-2.566;2022-11-20T03:26:12;5.03;;;4.13;;
7675;SDS011;3880;51.464;-2.566;2022-11-20T03:28:46;11.93;;;8.87;;
7675;SDS011;3880;51.464;-2.566;2022-11-20T03:31:16;4.80;;;3.83;;
7675;SDS011;3880;51.464;-2.566;2022-11-20T03:33:44;6.70;;;4.90;;
7675;SDS011;3880;51.464;-2.566;2022-11-20T03:36:12;4.20;;;3.80;;
7675;SDS011;3880;51.464;-2.566;2022-11-20T03:38:41;4.03;;;3.73;;
7675;SDS011;3880;51.464;-2.566;2022-11-20T03:41:10;3.77;;;3.47;;
7675;SDS011;3880;51.464;-2.566;2022-11-20T03:43:38;5.63;;;4.10;;
7675;SDS011;3880;51.464;-2.566;2022-11-20T03:46:06;33.50;;;17.40;;
7675;SDS011;3880;51.464;-2.566;2022-11-20T03:48:34;4.83;;;4.20;;
7675;SDS011;3880;51.464;-2.566;2022-11-20T03:51:07;4.10;;;3.80;;
7675;SDS011;3880;51.464;-2.566;2022-11-20T03:53:35;3.90;;;3.50;;
7675;SDS011;3880;51.464;-2.566;2022-11-20T03:56:03;6.73;;;4.73;;
7675;SDS011;3880;51.464;-2.566;2022-11-20T03:58:30;3.93;;;3.53;;
7675;SDS011;3880;51.464;-2.566;2022-11-20T04:01:03;4.03;;;3.13;;
7675;SDS011;3880;51.464;-2.566;2022-11-20T04:03:33;2.90;;;2.70;;
7675;SDS011;3880;51.464;-2.566;2022-11-20T04:06:03;2.97;;;2.33;;
7675;SDS011;3880;51.464;-2.566;2022-11-20T04:08:31;2.60;;;2.40;;
7675;SDS011;3880;51.464;-2.566;2022-11-20T04:11:07;2.53;;;2.27;;
7675;SDS011;3880;51.464;-2.566;2022-11-20T04:13:36;3.03;;;2.33;;
7675;SDS011;3880;51.464;-2.566;2022-11-20T04:16:03;8.90;;;5.97;;
7675;SDS011;3880;51.464;-2.566;2022-11-20T04:18:30;12.70;;;8.27;;
7675;SDS011;3880;51.464;-2.566;2022-11-20T04:20:59;8.77;;;4.60;;
7675;SDS011;3880;51.464;-2.566;2022-11-20T04:23:26;4.13;;;3.63;;
7675;SDS011;3880;51.464;-2.566;2022-11-20T04:25:53;4.17;;;3.13;;
7675;SDS011;3880;51.464;-2.566;2022-11-20T04:28:20;3.60;;;3.30;;
7675;SDS011;3880;51.464;-2.566;2022-11-20T04:30:47;3.97;;;2.80;;
7675;SDS011;3880;51.464;-2.566;2022-11-20T04:33:14;3.73;;;2.53;;
7675;SDS011;3880;51.464;-2.566;2022-11-20T04:35:43;6.57;;;3.97;;
7675;SDS011;3880;51.464;-2.566;2022-11-20T04:38:13;3.23;;;3.00;;
7675;SDS011;3880;51.464;-2.566;2022-11-20T04:40:40;4.13;;;2.90;;
7675;SDS011;3880;51.464;-2.566;2022-11-20T04:43:07;7.57;;;4.27;;
7675;SDS011;3880;51.464;-2.566;2022-11-20T04:45:34;3.70;;;2.70;;
7675;SDS011;3880;51.464;-2.566;2022-11-20T04:48:01;3.17;;;2.60;;
7675;SDS011;3880;51.464;-2.566;2022-11-20T04:50:28;7.23;;;3.00;;
7675;SDS011;3880;51.464;-2.566;2022-11-20T04:52:57;5.10;;;2.10;;
7675;SDS011;3880;51.464;-2.566;2022-11-20T04:55:24;4.53;;;2.33;;
7675;SDS011;3880;51.464;-2.566;2022-11-20T04:57:51;5.30;;;2.27;;
7675;SDS011;3880;51.464;-2.566;2022-11-20T05:00:18;3.63;;;2.30;;
7675;SDS011;3880;51.464;-2.566;2022-11-20T05:02:46;4.60;;;2.40;;
7675;SDS011;3880;51.464;-2.566;2022-11-20T05:05:13;3.43;;;2.40;;
7675;SDS011;3880;51.464;-2.566;2022-11-20T05:07:40;3.67;;;2.20;;
7675;SDS011;3880;51.464;-2.566;2022-11-20T05:10:09;10.30;;;3.43;;
7675;SDS011;3880;51.464;-2.566;2022-11-20T05:12:36;7.33;;;3.80;;
7675;SDS011;3880;51.464;-2.566;2022-11-20T05:15:03;6.37;;;2.80;;
7675;SDS011;3880;51.464;-2.566;2022-11-20T05:17:31;5.17;;;2.77;;
7675;SDS011;3880;51.464;-2.566;2022-11-20T05:19:58;8.67;;;3.33;;
7675;SDS011;3880;51.464;-2.566;2022-11-20T05:22:25;11.43;;;3.50;;
7675;SDS011;3880;51.464;-2.566;2022-11-20T05:24:52;5.97;;;3.00;;
7675;SDS011;3880;51.464;-2.566;2022-11-20T05:27:21;10.90;;;3.37;;
7675;SDS011;3880;51.464;-2.566;2022-11-20T05:29:48;8.03;;;3.30;;
7675;SDS011;3880;51.464;-2.566;2022-11-20T05:32:15;14.50;;;3.40;;
7675;SDS011;3880;51.464;-2.566;2022-11-20T05:34:43;6.23;;;3.03;;
7675;SDS011;3880;51.464;-2.566;2022-11-20T05:37:12;10.90;;;3.30;;
7675;SDS011;3880;51.464;-2.566;2022-11-20T05:39:40;10.57;;;3.37;;
7675;SDS011;3880;51.464;-2.566;2022-11-20T05:42:07;10.33;;;3.43;;
7675;SDS011;3880;51.464;-2.566;2022-11-20T05:44:52;12.47;;;3.83;;
7675;SDS011;3880;51.464;-2.566;2022-11-20T05:47:19;12.70;;;3.40;;
7675;SDS011;3880;51.464;-2.566;2022-11-20T05:49:47;6.80;;;2.80;;
7675;SDS011;3880;51.464;-2.566;2022-11-20T05:52:14;10.00;;;3.40;;
7675;SDS011;3880;51.464;-2.566;2022-11-20T05:54:41;9.23;;;3.70;;
7675;SDS011;3880;51.464;-2.566;2022-11-20T05:57:08;10.27;;;3.20;;
7675;SDS011;3880;51.464;-2.566;2022-11-20T05:59:35;14.30;;;3.63;;
7675;SDS011;3880;51.464;-2.566;2022-11-20T06:02:03;13.20;;;3.53;;
7675;SDS011;3880;51.464;-2.566;2022-11-20T06:04:32;20.17;;;4.97;;
7675;SDS011;3880;51.464;-2.566;2022-11-20T06:06:59;17.07;;;4.17;;
7675;SDS011;3880;51.464;-2.566;2022-11-20T06:09:26;12.13;;;3.57;;
7675;SDS011;3880;51.464;-2.566;2022-11-20T06:11:53;12.23;;;3.90;;
7675;SDS011;3880;51.464;-2.566;2022-11-20T06:14:20;12.43;;;4.07;;
7675;SDS011;3880;51.464;-2.566;2022-11-20T06:16:47;21.87;;;4.53;;
7675;SDS011;3880;51.464;-2.566;2022-11-20T06:19:16;15.97;;;4.13;;
7675;SDS011;3880;51.464;-2.566;2022-11-20T06:21:43;16.90;;;4.73;;
7675;SDS011;3880;51.464;-2.566;2022-11-20T06:24:10;18.83;;;4.70;;
7675;SDS011;3880;51.464;-2.566;2022-11-20T06:26:37;21.10;;;5.47;;
7675;SDS011;3880;51.464;-2.566;2022-11-20T06:29:05;20.90;;;4.43;;
7675;SDS011;3880;51.464;-2.566;2022-11-20T06:31:32;32.10;;;6.70;;
7675;SDS011;3880;51.464;-2.566;2022-11-20T06:34:02;17.23;;;3.90;;
7675;SDS011;3880;51.464;-2.566;2022-11-20T06:36:32;25.13;;;4.63;;
7675;SDS011;3880;51.464;-2.566;2022-11-20T06:38:59;27.10;;;4.77;;
7675;SDS011;3880;51.464;-2.566;2022-11-20T06:41:26;24.47;;;4.33;;
7675;SDS011;3880;51.464;-2.566;2022-11-20T06:43:54;25.80;;;5.37;;
7675;SDS011;3880;51.464;-2.566;2022-11-20T06:46:21;32.93;;;5.47;;
7675;SDS011;3880;51.464;-2.566;2022-11-20T06:48:48;29.57;;;5.87;;
7675;SDS011;3880;51.464;-2.566;2022-11-20T06:51:16;35.97;;;6.83;;
7675;SDS011;3880;51.464;-2.566;2022-11-20T06:53:44;19.73;;;4.73;;
7675;SDS011;3880;51.464;-2.566;2022-11-20T06:56:11;22.57;;;5.13;;
7675;SDS011;3880;51.464;-2.566;2022-11-20T06:58:39;14.97;;;5.07;;
7675;SDS011;3880;51.464;-2.566;2022-11-20T07:01:07;31.70;;;4.60;;
7675;SDS011;3880;51.464;-2.566;2022-11-20T07:03:36;27.10;;;5.77;;
7675;SDS011;3880;51.464;-2.566;2022-11-20T07:06:04;24.43;;;5.80;;
7675;SDS011;3880;51.464;-2.566;2022-11-20T07:08:32;25.47;;;5.47;;
7675;SDS011;3880;51.464;-2.566;2022-11-20T07:11:01;30.83;;;6.40;;
7675;SDS011;3880;51.464;-2.566;2022-11-20T07:13:30;28.10;;;5.00;;
7675;SDS011;3880;51.464;-2.566;2022-11-20T07:15:58;20.27;;;6.17;;
7675;SDS011;3880;51.464;-2.566;2022-11-20T07:18:27;22.93;;;5.03;;
7675;SDS011;3880;51.464;-2.566;2022-11-20T07:20:54;28.47;;;6.53;;
7675;SDS011;3880;51.464;-2.566;2022-11-20T07:23:22;41.30;;;5.93;;
7675;SDS011;3880;51.464;-2.566;2022-11-20T07:25:49;36.40;;;5.87;;
7675;SDS011;3880;51.464;-2.566;2022-11-20T07:28:17;23.90;;;5.10;;
7675;SDS011;3880;51.464;-2.566;2022-11-20T07:30:48;25.13;;;5.77;;
7675;SDS011;3880;51.464;-2.566;2022-11-20T07:33:16;23.03;;;4.93;;
7675;SDS011;3880;51.464;-2.566;2022-11-20T07:35:43;24.77;;;5.80;;
7675;SDS011;3880;51.464;-2.566;2022-11-20T07:38:11;20.90;;;5.03;;
7675;SDS011;3880;51.464;-2.566;2022-11-20T07:40:38;18.00;;;5.27;;
7675;SDS011;3880;51.464;-2.566;2022-11-20T07:43:05;21.53;;;5.83;;
7675;SDS011;3880;51.464;-2.566;2022-11-20T07:45:33;25.20;;;6.43;;
7675;SDS011;3880;51.464;-2.566;2022-11-20T07:48:00;22.23;;;6.33;;
7675;SDS011;3880;51.464;-2.566;2022-11-20T07:50:27;21.97;;;6.47;;
7675;SDS011;3880;51.464;-2.566;2022-11-20T07:52:59;21.67;;;5.37;;
7675;SDS011;3880;51.464;-2.566;2022-11-20T07:55:28;27.13;;;6.20;;
7675;SDS011;3880;51.464;-2.566;2022-11-20T07:57:55;27.17;;;6.10;;
7675;SDS011;3880;51.464;-2.566;2022-11-20T08:00:22;27.33;;;6.43;;
7675;SDS011;3880;51.464;-2.566;2022-11-20T08:02:51;26.53;;;6.47;;
7675;SDS011;3880;51.464;-2.566;2022-11-20T08:05:20;20.90;;;5.40;;
7675;SDS011;3880;51.464;-2.566;2022-11-20T08:07:47;20.57;;;5.63;;
7675;SDS011;3880;51.464;-2.566;2022-11-20T08:10:14;33.10;;;6.70;;
7675;SDS011;3880;51.464;-2.566;2022-11-20T08:12:45;22.93;;;6.17;;
7675;SDS011;3880;51.464;-2.566;2022-11-20T08:15:31;30.17;;;6.10;;
7675;SDS011;3880;51.464;-2.566;2022-11-20T08:18:00;27.30;;;6.20;;
7675;SDS011;3880;51.464;-2.566;2022-11-20T08:20:29;31.37;;;6.83;;
7675;SDS011;3880;51.464;-2.566;2022-11-20T08:22:59;20.07;;;6.63;;
7675;SDS011;3880;51.464;-2.566;2022-11-20T08:25:27;29.50;;;6.57;;
7675;SDS011;3880;51.464;-2.566;2022-11-20T08:27:56;41.13;;;8.53;;
7675;SDS011;3880;51.464;-2.566;2022-11-20T08:30:24;30.83;;;7.57;;
7675;SDS011;3880;51.464;-2.566;2022-11-20T08:32:51;40.77;;;7.87;;
7675;SDS011;3880;51.464;-2.566;2022-11-20T08:35:19;29.63;;;6.53;;
7675;SDS011;3880;51.464;-2.566;2022-11-20T08:37:46;28.73;;;7.63;;
7675;SDS011;3880;51.464;-2.566;2022-11-20T08:40:13;29.93;;;6.57;;
7675;SDS011;3880;51.464;-2.566;2022-11-20T08:42:45;43.93;;;9.80;;
7675;SDS011;3880;51.464;-2.566;2022-11-20T08:45:13;26.13;;;7.27;;
7675;SDS011;3880;51.464;-2.566;2022-11-20T08:47:41;32.63;;;7.40;;
7675;SDS011;3880;51.464;-2.566;2022-11-20T08:50:08;40.07;;;8.63;;
7675;SDS011;3880;51.464;-2.566;2022-11-20T08:52:37;33.23;;;7.53;;
7675;SDS011;3880;51.464;-2.566;2022-11-20T08:55:05;28.83;;;6.93;;
7675;SDS011;3880;51.464;-2.566;2022-11-20T08:57:32;34.90;;;7.33;;
7675;SDS011;3880;51.464;-2.566;2022-11-20T09:00:00;32.77;;;7.30;;
7675;SDS011;3880;51.464;-2.566;2022-11-20T09:02:27;38.67;;;9.93;;
7675;SDS011;3880;51.464;-2.566;2022-11-20T09:04:54;37.47;;;7.87;;
7675;SDS011;3880;51.464;-2.566;2022-11-20T09:07:21;35.77;;;8.47;;
7675;SDS011;3880;51.464;-2.566;2022-11-20T09:09:49;35.77;;;7.83;;
7675;SDS011;3880;51.464;-2.566;2022-11-20T09:12:16;38.27;;;8.37;;
7675;SDS011;3880;51.464;-2.566;2022-11-20T09:14:43;37.20;;;9.43;;
7675;SDS011;3880;51.464;-2.566;2022-11-20T09:17:11;34.83;;;8.03;;
7675;SDS011;3880;51.464;-2.566;2022-11-20T09:19:39;30.73;;;8.10;;
7675;SDS011;3880;51.464;-2.566;2022-11-20T09:22:07;35.33;;;7.50;;
7675;SDS011;3880;51.464;-2.566;2022-11-20T09:24:34;35.93;;;8.80;;
7675;SDS011;3880;51.464;-2.566;2022-11-20T09:27:03;43.67;;;10.20;;
7675;SDS011;3880;51.464;-2.566;2022-11-20T09:29:31;33.60;;;8.80;;
7675;SDS011;3880;51.464;-2.566;2022-11-20T09:31:58;23.37;;;6.20;;
7675;SDS011;3880;51.464;-2.566;2022-11-20T09:34:24;23.07;;;6.00;;
7675;SDS011;3880;51.464;-2.566;2022-11-20T09:36:51;34.43;;;6.63;;
7675;SDS011;3880;51.464;-2.566;2022-11-20T09:39:19;30.40;;;7.17;;
7675;SDS011;3880;51.464;-2.566;2022-11-20T09:41:49;32.80;;;6.27;;
7675;SDS011;3880;51.464;-2.566;2022-11-20T09:44:43;23.80;;;5.33;;
7675;SDS011;3880;51.464;-2.566;2022-11-20T09:47:26;31.30;;;6.60;;
7675;SDS011;3880;51.464;-2.566;2022-11-20T09:50:05;21.07;;;5.83;;
7675;SDS011;3880;51.464;-2.566;2022-11-20T09:52:47;19.83;;;5.97;;
7675;SDS011;3880;51.464;-2.566;2022-11-20T09:55:24;24.00;;;6.67;;
7675;SDS011;3880;51.464;-2.566;2022-11-20T09:57:52;22.00;;;5.87;;
7675;SDS011;3880;51.464;-2.566;2022-11-20T10:00:23;34.23;;;6.77;;
7675;SDS011;3880;51.464;-2.566;2022-11-20T10:02:52;27.37;;;6.60;;
7675;SDS011;3880;51.464;-2.566;2022-11-20T10:05:22;23.37;;;5.77;;
7675;SDS011;3880;51.464;-2.566;2022-11-20T10:07:55;23.43;;;5.83;;
7675;SDS011;3880;51.464;-2.566;2022-11-20T10:10:29;20.23;;;5.03;;
7675;SDS011;3880;51.464;-2.566;2022-11-20T10:13:06;16.87;;;5.50;;
7675;SDS011;3880;51.464;-2.566;2022-11-20T10:15:52;18.47;;;5.00;;
7675;SDS011;3880;51.464;-2.566;2022-11-20T10:18:31;13.80;;;5.53;;
7675;SDS011;3880;51.464;-2.566;2022-11-20T10:21:13;15.30;;;5.83;;
7675;SDS011;3880;51.464;-2.566;2022-11-20T10:23:56;21.07;;;6.63;;
7675;SDS011;3880;51.464;-2.566;2022-11-20T10:26:44;19.43;;;5.53;;
7675;SDS011;3880;51.464;-2.566;2022-11-20T10:29:16;18.53;;;5.50;;
7675;SDS011;3880;51.464;-2.566;2022-11-20T10:31:47;19.20;;;5.40;;
7675;SDS011;3880;51.464;-2.566;2022-11-20T10:34:20;14.23;;;4.78;;
7675;SDS011;3880;51.464;-2.566;2022-11-20T10:36:55;17.80;;;6.53;;
7675;SDS011;3880;51.464;-2.566;2022-11-20T10:39:30;20.00;;;5.78;;
7675;SDS011;3880;51.464;-2.566;2022-11-20T10:42:01;19.77;;;6.60;;
7675;SDS011;3880;51.464;-2.566;2022-11-20T10:44:31;12.95;;;4.88;;
7675;SDS011;3880;51.464;-2.566;2022-11-20T10:47:17;10.10;;;4.28;;
7675;SDS011;3880;51.464;-2.566;2022-11-20T10:49:46;13.40;;;6.35;;
7675;SDS011;3880;51.464;-2.566;2022-11-20T10:52:19;14.70;;;4.07;;
7675;SDS011;3880;51.464;-2.566;2022-11-20T10:54:58;13.88;;;4.88;;
7675;SDS011;3880;51.464;-2.566;2022-11-20T10:57:35;11.40;;;3.88;;
7675;SDS011;3880;51.464;-2.566;2022-11-20T11:00:14;15.18;;;4.35;;
7675;SDS011;3880;51.464;-2.566;2022-11-20T11:02:45;15.70;;;5.00;;
7675;SDS011;3880;51.464;-2.566;2022-11-20T11:05:20;14.47;;;4.97;;
7675;SDS011;3880;51.464;-2.566;2022-11-20T11:07:54;12.63;;;3.73;;
7675;SDS011;3880;51.464;-2.566;2022-11-20T11:10:24;11.87;;;4.87;;
7675;SDS011;3880;51.464;-2.566;2022-11-20T11:12:54;50.63;;;12.67;;
7675;SDS011;3880;51.464;-2.566;2022-11-20T11:15:25;26.13;;;8.10;;
7675;SDS011;3880;51.464;-2.566;2022-11-20T11:17:55;16.30;;;5.50;;
7675;SDS011;3880;51.464;-2.566;2022-11-20T11:20:22;9.37;;;3.57;;
7675;SDS011;3880;51.464;-2.566;2022-11-20T11:22:51;21.20;;;4.53;;
7675;SDS011;3880;51.464;-2.566;2022-11-20T11:25:21;16.37;;;4.90;;
7675;SDS011;3880;51.464;-2.566;2022-11-20T11:27:54;11.10;;;4.10;;
7675;SDS011;3880;51.464;-2.566;2022-11-20T11:30:22;15.30;;;4.30;;
7675;SDS011;3880;51.464;-2.566;2022-11-20T11:33:01;10.90;;;4.43;;
7675;SDS011;3880;51.464;-2.566;2022-11-20T11:35:31;15.17;;;4.60;;
7675;SDS011;3880;51.464;-2.566;2022-11-20T11:38:03;15.23;;;4.93;;
7675;SDS011;3880;51.464;-2.566;2022-11-20T11:40:32;13.03;;;4.27;;
7675;SDS011;3880;51.464;-2.566;2022-11-20T11:43:02;11.67;;;4.40;;
7675;SDS011;3880;51.464;-2.566;2022-11-20T11:45:52;13.37;;;4.90;;
7675;SDS011;3880;51.464;-2.566;2022-11-20T11:48:21;16.87;;;5.60;;
7675;SDS011;3880;51.464;-2.566;2022-11-20T11:50:48;12.83;;;4.40;;
7675;SDS011;3880;51.464;-2.566;2022-11-20T11:53:17;15.97;;;5.70;;
7675;SDS011;3880;51.464;-2.566;2022-11-20T11:55:47;19.40;;;6.57;;
7675;SDS011;3880;51.464;-2.566;2022-11-20T11:58:22;26.50;;;6.60;;
7675;SDS011;3880;51.464;-2.566;2022-11-20T12:01:02;13.30;;;4.93;;
7675;SDS011;3880;51.464;-2.566;2022-11-20T12:03:50;18.13;;;5.43;;
7675;SDS011;3880;51.464;-2.566;2022-11-20T12:06:22;17.47;;;5.60;;
7675;SDS011;3880;51.464;-2.566;2022-11-20T12:08:51;20.50;;;5.47;;
7675;SDS011;3880;51.464;-2.566;2022-11-20T12:11:24;24.30;;;6.53;;
7675;SDS011;3880;51.464;-2.566;2022-11-20T12:14:01;25.63;;;5.27;;
7675;SDS011;3880;51.464;-2.566;2022-11-20T12:16:36;20.23;;;6.10;;
7675;SDS011;3880;51.464;-2.566;2022-11-20T12:19:09;21.73;;;5.33;;
7675;SDS011;3880;51.464;-2.566;2022-11-20T12:21:42;22.07;;;5.73;;
7675;SDS011;3880;51.464;-2.566;2022-11-20T12:24:25;24.93;;;5.67;;
7675;SDS011;3880;51.464;-2.566;2022-11-20T12:27:16;29.93;;;6.93;;
7675;SDS011;3880;51.464;-2.566;2022-11-20T12:30:07;22.77;;;5.40;;
7675;SDS011;3880;51.464;-2.566;2022-11-20T12:35:37;14.70;;;3.50;;
7675;SDS011;3880;51.464;-2.566;2022-11-20T12:38:22;16.57;;;4.20;;
7675;SDS011;3880;51.464;-2.566;2022-11-20T12:41:05;10.90;;;3.53;;
7675;SDS011;3880;51.464;-2.566;2022-11-20T12:44:01;14.97;;;4.87;;
7675;SDS011;3880;51.464;-2.566;2022-11-20T12:46:55;18.90;;;3.57;;
7675;SDS011;3880;51.464;-2.566;2022-11-20T12:49:35;18.03;;;3.67;;
7675;SDS011;3880;51.464;-2.566;2022-11-20T12:52:14;9.47;;;3.50;;
7675;SDS011;3880;51.464;-2.566;2022-11-20T12:57:49;15.00;;;3.63;;
7675;SDS011;3880;51.464;-2.566;2022-11-20T13:00:20;10.57;;;3.13;;
7675;SDS011;3880;51.464;-2.566;2022-11-20T13:05:57;21.37;;;4.33;;
7675;SDS011;3880;51.464;-2.566;2022-11-20T13:08:34;11.73;;;3.40;;
7675;SDS011;3880;51.464;-2.566;2022-11-20T13:11:05;12.83;;;3.00;;
7675;SDS011;3880;51.464;-2.566;2022-11-20T13:13:42;20.70;;;6.83;;
7675;SDS011;3880;51.464;-2.566;2022-11-20T13:16:16;12.17;;;2.90;;
7675;SDS011;3880;51.464;-2.566;2022-11-20T13:18:48;13.13;;;3.17;;
7675;SDS011;3880;51.464;-2.566;2022-11-20T13:21:16;10.03;;;2.93;;
7675;SDS011;3880;51.464;-2.566;2022-11-20T13:23:46;12.80;;;3.50;;
7675;SDS011;3880;51.464;-2.566;2022-11-20T13:26:15;11.23;;;3.17;;
7675;SDS011;3880;51.464;-2.566;2022-11-20T13:28:47;15.70;;;2.80;;
7675;SDS011;3880;51.464;-2.566;2022-11-20T13:31:28;16.27;;;3.27;;
7675;SDS011;3880;51.464;-2.566;2022-11-20T13:33:58;9.13;;;2.67;;
7675;SDS011;3880;51.464;-2.566;2022-11-20T13:36:28;19.13;;;3.53;;
7675;SDS011;3880;51.464;-2.566;2022-11-20T13:38:58;12.27;;;3.83;;
7675;SDS011;3880;51.464;-2.566;2022-11-20T13:41:26;15.20;;;3.80;;
7675;SDS011;3880;51.464;-2.566;2022-11-20T13:43:58;7.60;;;2.17;;
7675;SDS011;3880;51.464;-2.566;2022-11-20T13:46:37;15.07;;;3.40;;
7675;SDS011;3880;51.464;-2.566;2022-11-20T13:49:09;11.40;;;3.37;;
7675;SDS011;3880;51.464;-2.566;2022-11-20T13:51:43;7.23;;;2.10;;
7675;SDS011;3880;51.464;-2.566;2022-11-20T13:54:25;10.17;;;3.17;;
7675;SDS011;3880;51.464;-2.566;2022-11-20T13:57:36;8.17;;;3.37;;
7675;SDS011;3880;51.464;-2.566;2022-11-20T14:00:21;10.17;;;2.40;;
7675;SDS011;3880;51.464;-2.566;2022-11-20T14:02:52;10.00;;;2.77;;
7675;SDS011;3880;51.464;-2.566;2022-11-20T14:05:27;12.40;;;2.87;;
7675;SDS011;3880;51.464;-2.566;2022-11-20T14:07:57;8.47;;;3.00;;
7675;SDS011;3880;51.464;-2.566;2022-11-20T14:10:31;11.77;;;2.43;;
7675;SDS011;3880;51.464;-2.566;2022-11-20T14:12:58;7.20;;;2.47;;
7675;SDS011;3880;51.464;-2.566;2022-11-20T14:15:36;11.60;;;2.47;;
7675;SDS011;3880;51.464;-2.566;2022-11-20T14:18:11;5.43;;;1.90;;
7675;SDS011;3880;51.464;-2.566;2022-11-20T14:20:39;7.70;;;2.63;;
7675;SDS011;3880;51.464;-2.566;2022-11-20T14:23:09;11.40;;;3.33;;
7675;SDS011;3880;51.464;-2.566;2022-11-20T14:25:38;5.70;;;2.60;;
7675;SDS011;3880;51.464;-2.566;2022-11-20T14:28:10;15.43;;;4.60;;
7675;SDS011;3880;51.464;-2.566;2022-11-20T14:30:46;6.07;;;2.30;;
7675;SDS011;3880;51.464;-2.566;2022-11-20T14:33:15;8.37;;;3.63;;
7675;SDS011;3880;51.464;-2.566;2022-11-20T14:35:45;22.37;;;5.60;;
7675;SDS011;3880;51.464;-2.566;2022-11-20T14:38:14;18.20;;;7.70;;
7675;SDS011;3880;51.464;-2.566;2022-11-20T14:40:44;18.73;;;6.47;;
7675;SDS011;3880;51.464;-2.566;2022-11-20T14:43:16;12.17;;;4.10;;
7675;SDS011;3880;51.464;-2.566;2022-11-20T14:45:48;14.20;;;3.83;;
7675;SDS011;3880;51.464;-2.566;2022-11-20T14:48:23;10.77;;;4.80;;
7675;SDS011;3880;51.464;-2.566;2022-11-20T14:50:56;14.30;;;4.07;;
7675;SDS011;3880;51.464;-2.566;2022-11-20T14:53:23;12.60;;;4.87;;
7675;SDS011;3880;51.464;-2.566;2022-11-20T14:55:59;12.00;;;3.87;;
7675;SDS011;3880;51.464;-2.566;2022-11-20T14:58:28;21.00;;;9.63;;
7675;SDS011;3880;51.464;-2.566;2022-11-20T15:00:57;17.30;;;4.73;;
7675;SDS011;3880;51.464;-2.566;2022-11-20T15:03:30;10.50;;;4.60;;
7675;SDS011;3880;51.464;-2.566;2022-11-20T15:06:00;15.73;;;6.13;;
7675;SDS011;3880;51.464;-2.566;2022-11-20T15:08:27;16.63;;;4.63;;
7675;SDS011;3880;51.464;-2.566;2022-11-20T15:10:56;25.80;;;5.10;;
7675;SDS011;3880;51.464;-2.566;2022-11-20T15:13:25;18.67;;;3.97;;
7675;SDS011;3880;51.464;-2.566;2022-11-20T15:15:56;10.87;;;3.33;;
7675;SDS011;3880;51.464;-2.566;2022-11-20T15:18:26;10.30;;;3.87;;
7675;SDS011;3880;51.464;-2.566;2022-11-20T15:20:57;11.17;;;3.57;;
7675;SDS011;3880;51.464;-2.566;2022-11-20T15:23:27;9.53;;;3.13;;